Terminal Aerodrome Forecast
Issued by NWS Wilmington, OH

Current Version | Previous Version | Graphics & Text | Print | Product List | Glossary On
Versions: 1 2 3 4 5 6 7 8 9 10 11 12 13 14 15 16 17 18 19 20 21 22 23 24 25 26
000
FTUS41 KILN 180524
TAFCMH
TAF
KCMH 180524Z 1806/1906 04007KT P6SM VCSH FEW050 OVC120
     FM181200 06008KT P6SM VCSH BKN050
     FM181400 08010KT P6SM VCSH BKN025
     FM181800 08012KT 5SM -SHRA OVC025
     FM182100 09011KT 5SM -SHRA OVC015
     FM190500 11007KT P6SM OVC025=

USA.gov is the U.S. government's official web portal to all federal, state and local government web resources and services.